createdAt,value
2022-11-07T00:00:27.570Z,100759.78
2022-11-07T00:02:55.472Z,100749.28
2022-11-07T00:05:24.400Z,100750.94
2022-11-07T00:07:52.113Z,100742.25
2022-11-07T00:10:19.742Z,100734.44
2022-11-07T00:12:47.548Z,100745.75
2022-11-07T00:15:15.164Z,100761.34
2022-11-07T00:17:42.788Z,100747.53
2022-11-07T00:20:12.454Z,100756.22
2022-11-07T00:22:41.391Z,100747.59
2022-11-07T00:25:10.922Z,100748.53
2022-11-07T00:27:38.970Z,100739.91
2022-11-07T00:30:07.845Z,100748.53
2022-11-07T00:32:37.737Z,100739.81
2022-11-07T00:35:05.757Z,100742.41
2022-11-07T00:37:33.438Z,100743.31
2022-11-07T00:40:02.270Z,100738.13
2022-11-07T00:42:29.789Z,100737.28
2022-11-07T00:44:57.245Z,100736.56
2022-11-07T00:47:24.823Z,100743.69
2022-11-07T00:49:52.404Z,100732.44
2022-11-07T00:52:19.928Z,100730.84
2022-11-07T00:54:47.444Z,100726.56
2022-11-07T00:57:16.256Z,100725.75
2022-11-07T00:59:43.748Z,100721.38
2022-11-07T01:02:11.355Z,100727.31
2022-11-07T01:04:56.827Z,100707.38
2022-11-07T01:07:24.248Z,100713.25
2022-11-07T01:09:51.697Z,100721.78
2022-11-07T01:12:20.500Z,100711.38
2022-11-07T01:14:48.029Z,100720.88
2022-11-07T01:17:15.678Z,100722.63
2022-11-07T01:19:43.178Z,100719.28
2022-11-07T01:22:10.784Z,100720.78
2022-11-07T01:24:38.727Z,100731.19
2022-11-07T01:27:06.186Z,100723.31
2022-11-07T01:29:35.258Z,100714.66
2022-11-07T01:32:02.749Z,100714.56
2022-11-07T01:34:30.262Z,100723.13
2022-11-07T01:36:57.744Z,100716.25
2022-11-07T01:39:25.347Z,100713.66
2022-11-07T01:42:18.011Z,100712.75
2022-11-07T01:45:01.083Z,100702.22
2022-11-07T01:47:32.313Z,100691.66
2022-11-07T01:50:00.937Z,100698.56
2022-11-07T01:52:32.542Z,100705.53
2022-11-07T01:55:05.112Z,100708.03
2022-11-07T01:57:36.293Z,100701.91
2022-11-07T02:00:09.147Z,100710.53
2022-11-07T02:02:37.341Z,100708.78
2022-11-07T02:05:08.032Z,100705.25
2022-11-07T02:07:36.907Z,100713.03
2022-11-07T02:10:05.237Z,100708.63
2022-11-07T02:12:32.794Z,100710.25
2022-11-07T02:15:00.456Z,100702.47
2022-11-07T02:17:30.059Z,100705.84
2022-11-07T02:19:57.965Z,100706.59
2022-11-07T02:22:33.605Z,100699.63
2022-11-07T02:25:05.145Z,100690.81
2022-11-07T02:27:34.399Z,100700.28
2022-11-07T02:30:07.432Z,100701.13
2022-11-07T02:32:34.954Z,100690.53
2022-11-07T02:35:04.989Z,100706.03
2022-11-07T02:37:36.854Z,100700.75
2022-11-07T02:40:09.523Z,100696.31
2022-11-07T02:42:45.594Z,100697.06
2022-11-07T02:45:17.092Z,100690.00
2022-11-07T02:47:44.604Z,100698.63
2022-11-07T02:50:15.654Z,100699.50
2022-11-07T02:52:43.749Z,100699.50
2022-11-07T02:55:14.736Z,100695.22
2022-11-07T02:57:42.654Z,100703.00
2022-11-07T03:00:12.783Z,100695.22
2022-11-07T03:02:40.607Z,100697.81
2022-11-07T03:05:08.885Z,100703.09
2022-11-07T03:07:36.304Z,100702.34
2022-11-07T03:10:04.017Z,100704.88
2022-11-07T03:12:32.922Z,100709.13
2022-11-07T03:15:00.649Z,100715.19
2022-11-07T03:17:28.191Z,100707.47
2022-11-07T03:19:55.653Z,100709.13
2022-11-07T03:22:23.495Z,100721.22
2022-11-07T03:24:51.075Z,100719.44
2022-11-07T03:27:18.617Z,100714.25
2022-11-07T03:29:47.437Z,100722.03
2022-11-07T03:32:14.972Z,100729.75
2022-11-07T03:34:42.439Z,100740.94
2022-11-07T03:37:09.952Z,100747.88
2022-11-07T03:39:37.454Z,100747.88
2022-11-07T03:42:05.218Z,100750.38
2022-11-07T03:44:32.734Z,100751.22
2022-11-07T03:47:01.547Z,100752.00
2022-11-07T03:49:29.090Z,100754.59
2022-11-07T03:51:56.576Z,100750.03
2022-11-07T03:54:24.120Z,100756.94
2022-11-07T03:56:51.624Z,100750.78
2022-11-07T03:59:19.083Z,100753.31
2022-11-07T04:01:48.204Z,100766.22
2022-11-07T04:04:17.121Z,100758.34
2022-11-07T04:06:44.647Z,100759.06
2022-11-07T04:09:12.109Z,100762.41
2022-11-07T04:11:57.225Z,100764.00
2022-11-07T04:14:42.283Z,100760.59
2022-11-07T04:17:22.535Z,100767.34
2022-11-07T04:19:54.781Z,100756.69
2022-11-07T04:22:23.190Z,100767.00
2022-11-07T04:24:50.857Z,100758.22
2022-11-07T04:27:36.961Z,100764.88
2022-11-07T04:30:19.960Z,100756.81
2022-11-07T04:32:48.553Z,100764.44
2022-11-07T04:35:17.793Z,100764.28
2022-11-07T04:37:45.798Z,100760.72
2022-11-07T04:40:13.997Z,100765.75
2022-11-07T04:42:42.258Z,100771.81
2022-11-07T04:45:11.197Z,100775.09
2022-11-07T04:47:40.551Z,100775.03
2022-11-07T04:50:11.467Z,100786.16
2022-11-07T04:52:40.387Z,100776.41
2022-11-07T04:55:10.974Z,100773.63
2022-11-07T04:57:38.427Z,100777.88
2022-11-07T05:00:07.226Z,100777.78
2022-11-07T05:02:35.028Z,100778.66
2022-11-07T05:05:02.545Z,100782.81
2022-11-07T05:07:30.103Z,100780.13
2022-11-07T05:09:58.848Z,100788.78
2022-11-07T05:12:26.324Z,100790.38
2022-11-07T05:14:53.819Z,100789.44
2022-11-07T05:17:25.524Z,100792.97
2022-11-07T05:19:55.200Z,100802.38
2022-11-07T05:22:42.698Z,100793.53
2022-11-07T05:25:11.685Z,100799.56
2022-11-07T05:27:39.320Z,100800.44
2022-11-07T05:30:08.444Z,100801.25
2022-11-07T05:32:38.105Z,100798.56
2022-11-07T05:35:06.416Z,100802.75
2022-11-07T05:37:34.155Z,100806.19
2022-11-07T05:40:01.877Z,100806.09
2022-11-07T05:42:30.737Z,100803.50
2022-11-07T05:44:58.236Z,100813.84
2022-11-07T05:47:25.807Z,100816.44
2022-11-07T05:49:53.281Z,100818.94
2022-11-07T05:52:20.765Z,100818.09
2022-11-07T05:54:48.259Z,100823.22
2022-11-07T05:57:15.729Z,100828.25
2022-11-07T05:59:44.568Z,100829.09
2022-11-07T06:02:13.078Z,100830.75
2022-11-07T06:04:40.752Z,100839.41
2022-11-07T06:07:08.315Z,100836.78
2022-11-07T06:09:36.033Z,100837.66
2022-11-07T06:12:03.832Z,100836.78
2022-11-07T06:14:31.349Z,100842.13
2022-11-07T06:17:00.193Z,100853.53
2022-11-07T06:19:27.753Z,100857.94
2022-11-07T06:21:55.270Z,100855.22
2022-11-07T06:24:22.833Z,100853.47
2022-11-07T06:26:50.353Z,100847.31
2022-11-07T06:29:18.012Z,100850.75
2022-11-07T06:31:45.891Z,100862.00
2022-11-07T06:34:14.773Z,100862.97
2022-11-07T06:36:42.347Z,100864.63
2022-11-07T06:39:09.849Z,100854.19
2022-11-07T06:41:37.468Z,100851.59
2022-11-07T06:44:05.518Z,100859.41
2022-11-07T06:46:33.090Z,100866.22
2022-11-07T06:49:00.661Z,100866.22
2022-11-07T06:51:29.605Z,100869.66
2022-11-07T07:25:01.324Z,100884.25
2022-11-07T07:48:01.034Z,100890.16
2022-11-07T08:04:26.776Z,100890.41
2022-11-07T10:57:13.192Z,100926.81
2022-11-07T11:24:24.963Z,100911.06
2022-11-07T11:27:14.505Z,100904.13
2022-11-07T11:29:59.512Z,100906.47
2022-11-07T11:36:10.554Z,100906.00
2022-11-07T11:38:42.424Z,100898.47
2022-11-07T11:44:46.410Z,100900.41
2022-11-07T11:47:22.991Z,100903.00
2022-11-07T11:56:10.146Z,100905.53
2022-11-07T12:29:11.372Z,100891.56
2022-11-07T12:32:53.066Z,100895.03
2022-11-07T12:37:11.969Z,100897.34
2022-11-07T12:39:57.565Z,100901.34
2022-11-07T12:46:23.402Z,100890.38
2022-11-07T12:49:41.443Z,100899.19
2022-11-07T12:52:59.695Z,100907.47
2022-11-07T12:55:43.048Z,100905.81
2022-11-07T12:58:18.091Z,100903.72
2022-11-07T13:00:46.590Z,100898.63
2022-11-07T13:03:47.984Z,100893.00
2022-11-07T13:06:24.611Z,100898.88
2022-11-07T13:09:02.395Z,100899.34
2022-11-07T13:11:37.992Z,100900.09
2022-11-07T13:14:23.692Z,100897.28
2022-11-07T13:16:54.411Z,100894.16
2022-11-07T13:19:32.735Z,100893.13
2022-11-07T13:22:02.627Z,100911.91
2022-11-07T13:24:31.236Z,100904.44
2022-11-07T13:26:59.156Z,100900.59
2022-11-07T13:29:36.631Z,100907.69
2022-11-07T13:32:09.832Z,100901.03
2022-11-07T13:34:49.658Z,100898.53
2022-11-07T13:37:22.592Z,100904.09
2022-11-07T13:39:54.331Z,100912.84
2022-11-07T13:42:23.429Z,100916.28
2022-11-07T13:44:55.341Z,100907.00
2022-11-07T13:47:29.625Z,100900.03
2022-11-07T13:50:05.512Z,100904.19
2022-11-07T13:52:41.430Z,100912.88
2022-11-07T13:55:16.539Z,100906.72
2022-11-07T13:57:48.514Z,100913.78
2022-11-07T14:00:21.187Z,100909.03
2022-11-07T14:02:54.050Z,100915.81
2022-11-07T14:05:25.498Z,100902.47
2022-11-07T14:07:57.998Z,100907.44
2022-11-07T14:10:30.729Z,100912.13
2022-11-07T14:13:08.433Z,100906.44
2022-11-07T14:15:37.349Z,100906.81
2022-11-07T14:18:05.698Z,100909.00
2022-11-07T14:20:34.963Z,100902.31
2022-11-07T14:23:02.430Z,100893.16
2022-11-07T14:25:36.828Z,100903.94
2022-11-07T14:28:16.493Z,100901.94
2022-11-07T14:30:44.355Z,100894.69
2022-11-07T14:33:20.838Z,100888.28
2022-11-07T14:35:52.231Z,100892.03
2022-11-07T14:38:24.972Z,100891.56
2022-11-07T14:40:55.467Z,100888.34
2022-11-07T14:43:25.655Z,100891.34
2022-11-07T14:46:17.886Z,100889.94
2022-11-07T14:48:47.393Z,100888.38
2022-11-07T14:51:19.881Z,100892.09
2022-11-07T14:53:54.216Z,100879.34
2022-11-07T14:56:26.930Z,100876.97
2022-11-07T14:58:54.929Z,100877.22
2022-11-07T15:01:28.270Z,100871.38
2022-11-07T15:03:58.498Z,100868.19
2022-11-07T15:06:33.175Z,100880.63
2022-11-07T15:09:03.331Z,100873.09
2022-11-07T15:11:34.498Z,100875.03
2022-11-07T15:14:04.833Z,100879.69
2022-11-07T15:16:36.872Z,100877.44
2022-11-07T15:19:07.012Z,100881.97
2022-11-07T15:21:38.527Z,100889.28
2022-11-07T15:24:26.497Z,100888.56
2022-11-07T15:27:01.720Z,100887.88
2022-11-07T15:29:33.221Z,100887.16
2022-11-07T15:32:06.921Z,100889.19
2022-11-07T15:34:58.528Z,100877.03
2022-11-07T15:37:25.446Z,100892.78
2022-11-07T15:39:52.945Z,100893.84
2022-11-07T15:42:20.734Z,100887.06
2022-11-07T15:44:48.132Z,100888.00
2022-11-07T15:47:19.043Z,100894.44
2022-11-07T15:49:46.723Z,100893.63
2022-11-07T15:52:14.664Z,100900.69
2022-11-07T15:54:43.402Z,100895.56
2022-11-07T15:57:13.064Z,100898.28
2022-11-07T15:59:40.638Z,100894.09
2022-11-07T16:02:15.977Z,100895.09
2022-11-07T16:04:44.140Z,100897.84
2022-11-07T16:07:16.500Z,100907.50
2022-11-07T16:09:48.360Z,100903.19
2022-11-07T16:12:17.375Z,100898.91
2022-11-07T16:14:45.188Z,100901.75
2022-11-07T16:17:14.538Z,100906.44
2022-11-07T16:19:41.984Z,100910.16
2022-11-07T16:22:11.085Z,100915.50
2022-11-07T16:24:38.514Z,100905.25
2022-11-07T16:27:08.077Z,100913.25
2022-11-07T16:29:35.496Z,100915.16
2022-11-07T16:32:02.982Z,100911.78
2022-11-07T16:34:30.393Z,100907.75
2022-11-07T16:36:57.815Z,100909.56
2022-11-07T16:39:25.369Z,100914.06
2022-11-07T16:41:52.800Z,100915.88
2022-11-07T16:44:26.397Z,100919.59
2022-11-07T16:46:56.356Z,100921.47
2022-11-07T16:49:29.356Z,100920.75
2022-11-07T16:52:00.774Z,100921.09
2022-11-07T16:54:28.302Z,100918.59
2022-11-07T16:56:56.487Z,100912.75
2022-11-07T16:59:25.824Z,100923.50
2022-11-07T17:01:53.611Z,100928.94
2022-11-07T17:04:21.327Z,100930.97
2022-11-07T17:06:49.348Z,100919.75
2022-11-07T17:09:20.668Z,100931.31
2022-11-07T17:11:49.140Z,100928.09
2022-11-07T17:14:16.968Z,100925.59
2022-11-07T17:16:49.366Z,100928.31
2022-11-07T17:19:17.075Z,100930.94
2022-11-07T17:21:49.415Z,100933.69
2022-11-07T17:24:17.808Z,100932.03
2022-11-07T17:26:46.264Z,100935.59
2022-11-07T17:29:14.992Z,100932.25
2022-11-07T17:31:43.784Z,100928.81
2022-11-07T17:34:16.094Z,100939.53
2022-11-07T17:36:47.336Z,100940.34
2022-11-07T17:39:16.877Z,100942.97
2022-11-07T17:41:46.684Z,100949.06
2022-11-07T17:44:15.135Z,100950.84
2022-11-07T17:46:45.236Z,100947.28
2022-11-07T17:49:17.389Z,100955.97
2022-11-07T17:51:45.988Z,100956.81
2022-11-07T17:54:15.958Z,100963.72
2022-11-07T17:56:44.464Z,100955.88
2022-11-07T17:59:14.847Z,100961.81
2022-11-07T18:01:43.578Z,100959.19
2022-11-07T18:04:14.640Z,100961.81
2022-11-07T18:06:43.666Z,100964.44
2022-11-07T18:09:15.420Z,100968.97
2022-11-07T18:11:44.489Z,100957.66
2022-11-07T18:14:14.780Z,100958.72
2022-11-07T18:16:43.047Z,100959.53
2022-11-07T18:19:11.018Z,100969.19
2022-11-07T18:21:40.455Z,100961.34
2022-11-07T18:24:09.233Z,100973.50
2022-11-07T18:26:41.483Z,100963.97
2022-11-07T18:29:11.868Z,100963.13
2022-11-07T18:31:42.025Z,100965.63
2022-11-07T18:34:14.796Z,100966.34
2022-11-07T18:36:45.629Z,100968.97
2022-11-07T18:39:15.903Z,100963.72
2022-11-07T18:41:44.168Z,100975.91
2022-11-07T18:44:12.732Z,100974.94
2022-11-07T18:46:41.034Z,100972.31
2022-11-07T18:49:08.792Z,100972.31
2022-11-07T18:51:36.694Z,100968.75
2022-11-07T18:54:06.817Z,100968.75
2022-11-07T18:56:34.550Z,100972.31
2022-11-07T18:59:02.063Z,100974.00
2022-11-07T19:01:32.296Z,100977.56
2022-11-07T19:04:01.751Z,100977.56
2022-11-07T19:06:30.733Z,100976.84
2022-11-07T19:08:58.676Z,100976.84
2022-11-07T19:11:30.325Z,100971.59
2022-11-07T19:14:02.232Z,100977.78
2022-11-07T19:16:30.401Z,100979.69
2022-11-07T19:18:59.394Z,100973.72
2022-11-07T19:21:26.903Z,100973.97
2022-11-07T19:23:55.440Z,100971.34
2022-11-07T19:26:24.824Z,100975.88
2022-11-07T19:28:54.680Z,100968.94
2022-11-07T19:31:22.637Z,100984.69
2022-11-07T19:33:50.331Z,100982.06
2022-11-07T19:36:25.881Z,100989.19
2022-11-07T19:38:53.918Z,100981.22
2022-11-07T19:41:21.529Z,100990.03
2022-11-07T19:43:50.046Z,100983.13
2022-11-07T19:46:27.365Z,100983.97
2022-11-07T19:48:56.152Z,100990.13
2022-11-07T19:51:23.888Z,100995.38
2022-11-07T19:54:20.318Z,100977.88
2022-11-07T19:56:49.923Z,100983.13
2022-11-07T19:59:20.678Z,100986.69
2022-11-07T20:02:10.679Z,100983.25
2022-11-07T20:04:37.489Z,100988.38
2022-11-07T20:07:05.669Z,100980.50
2022-11-07T20:09:34.609Z,100980.63
2022-11-07T20:12:02.420Z,100987.63
2022-11-07T20:14:30.080Z,100991.22
2022-11-07T20:16:59.005Z,100989.44
2022-11-07T20:19:29.658Z,100987.75
2022-11-07T20:21:57.278Z,100989.53
2022-11-07T20:24:25.092Z,100993.94
2022-11-07T20:26:52.592Z,100996.69
2022-11-07T20:29:22.864Z,100994.91
2022-11-07T20:31:51.421Z,100997.41
2022-11-07T20:34:21.166Z,101000.13
2022-11-07T20:36:50.449Z,101004.44
2022-11-07T20:39:17.893Z,100989.66
2022-11-07T20:41:45.477Z,100997.41
2022-11-07T20:44:15.312Z,101012.19
2022-11-07T20:46:45.558Z,101005.88
2022-11-07T20:49:15.707Z,101004.09
2022-11-07T20:51:45.367Z,101016.25
2022-11-07T20:54:14.447Z,101010.19
2022-11-07T20:56:43.614Z,101013.50
2022-11-07T20:59:11.640Z,101016.13
2022-11-07T21:01:39.347Z,101023.19
2022-11-07T21:05:15.965Z,101022.22
2022-11-07T21:07:38.209Z,101025.69
2022-11-07T21:10:06.542Z,101016.03
2022-11-07T21:12:34.574Z,101019.38
2022-11-07T21:15:02.305Z,101024.59
2022-11-07T21:17:29.785Z,101022.09
2022-11-07T21:19:57.345Z,101025.56
2022-11-07T21:22:29.183Z,101026.41
2022-11-07T21:24:58.578Z,101037.59
2022-11-07T21:27:26.275Z,101022.72
2022-11-07T21:29:53.912Z,101020.09
2022-11-07T21:32:21.451Z,101027.00
2022-11-07T21:34:48.944Z,101017.50
2022-11-07T21:37:16.500Z,101020.09
2022-11-07T21:39:43.990Z,101024.50
2022-11-07T21:42:13.022Z,101012.34
2022-11-07T21:44:40.536Z,101024.50
2022-11-07T21:47:08.140Z,101022.84
2022-11-07T21:49:35.592Z,101020.34
2022-11-07T21:52:05.191Z,101011.59
2022-11-07T21:54:32.739Z,101013.28
2022-11-07T21:57:01.060Z,101010.78
2022-11-07T21:59:29.954Z,101013.41
2022-11-07T22:01:57.628Z,101019.59
2022-11-07T22:04:25.529Z,101025.69
2022-11-07T22:06:53.145Z,101023.06
2022-11-07T22:09:22.386Z,101014.34
2022-11-07T22:11:50.906Z,101022.31
2022-11-07T22:14:20.726Z,101018.97
2022-11-07T22:16:50.229Z,101011.34
2022-11-07T22:19:18.709Z,101014.94
2022-11-07T22:21:46.695Z,101014.06
2022-11-07T22:24:14.380Z,101016.81
2022-11-07T22:26:42.155Z,101026.56
2022-11-07T22:29:09.650Z,101023.00
2022-11-07T22:31:38.688Z,101023.84
2022-11-07T22:34:07.512Z,101016.09
2022-11-07T22:36:35.035Z,101012.63
2022-11-07T22:39:02.654Z,101018.81
2022-11-07T22:41:30.538Z,101025.97
2022-11-07T22:43:59.123Z,101020.72
2022-11-07T22:46:29.031Z,101017.28
2022-11-07T22:48:58.351Z,101033.13
2022-11-07T22:51:29.538Z,101023.47
2022-11-07T22:53:57.987Z,101029.66
2022-11-07T22:56:27.025Z,101023.69
2022-11-07T22:58:54.573Z,101029.88
2022-11-07T23:01:24.294Z,101019.50
2022-11-07T23:03:52.515Z,101026.78
2022-11-07T23:06:21.093Z,101020.66
2022-11-07T23:08:50.774Z,101009.47
2022-11-07T23:14:11.278Z,101015.03
2022-11-07T23:16:40.528Z,101009.09
2022-11-07T23:19:11.831Z,101018.00
2022-11-07T23:21:39.501Z,101013.81
2022-11-07T23:24:09.719Z,101020.97
2022-11-07T23:26:37.683Z,101021.91
2022-11-07T23:29:11.132Z,101018.56
2022-11-07T23:31:39.629Z,101014.25
2022-11-07T23:34:07.583Z,101015.19
2022-11-07T23:36:35.106Z,101017.00
2022-11-07T23:39:04.829Z,101018.06
2022-11-07T23:41:33.949Z,101018.06
2022-11-07T23:44:01.829Z,101023.53
2022-11-07T23:46:46.751Z,101014.91
2022-11-07T23:49:31.651Z,101013.38
2022-11-07T23:51:59.153Z,101013.47
2022-11-07T23:54:44.595Z,101008.34
2022-11-07T23:57:13.390Z,101010.25
